Time;durP1;ratioP1;P1;durP2;ratioP2;P2;SDS_P1;SDS_P2;PMS_P1;PMS_P2;Temp;Humidity;BMP_temperature;BMP_pressure;BME280_temperature;BME280_humidity;BME280_pressure;Samples;Min_cycle;Max_cycle;Signal;HPM_P1;HPM_P2
2024/01/04 00:01:11;;;;;;;9.90;8.10;;;;;;;6.51;100.00;98134.64;216029;1253;72152;-71
2024/01/04 00:06:03;;;;;;;17.50;10.30;;;;;;;6.52;100.00;98133.28;216039;1253;61283;-71
2024/01/04 00:10:55;;;;;;;13.70;8.30;;;;;;;6.53;100.00;98141.01;216066;1253;61326;-72
2024/01/04 00:15:50;;;;;;;12.10;7.80;;;;;;;6.54;100.00;98136.70;216045;1253;72744;-72
2024/01/04 00:20:42;;;;;;;12.10;8.60;;;;;;;6.55;100.00;98139.61;215965;1253;61274;-71
2024/01/04 00:25:34;;;;;;;13.00;8.30;;;;;;;6.55;100.00;98138.42;216035;1253;61220;-71
2024/01/04 00:30:25;;;;;;;12.80;7.20;;;;;;;6.56;100.00;98139.44;216084;1256;61244;-71
2024/01/04 00:35:17;;;;;;;9.70;7.20;;;;;;;6.57;100.00;98140.80;216030;1253;66132;-71
2024/01/04 00:40:09;;;;;;;8.00;6.20;;;;;;;6.58;100.00;98147.68;216140;1253;61118;-73
2024/01/04 00:45:00;;;;;;;9.00;6.30;;;;;;;6.59;100.00;98148.70;216176;1253;61335;-72
2024/01/04 00:49:52;;;;;;;10.10;7.10;;;;;;;6.60;100.00;98151.79;216153;1253;61266;-70
2024/01/04 00:54:43;;;;;;;10.30;7.70;;;;;;;6.60;100.00;98154.88;216169;1253;61246;-71
2024/01/04 00:59:35;;;;;;;9.00;6.70;;;;;;;6.61;100.00;98152.98;215929;1255;61325;-71
2024/01/04 01:04:26;;;;;;;13.30;6.70;;;;;;;6.63;100.00;98152.80;216196;1253;73388;-71
2024/01/04 01:09:18;;;;;;;11.60;6.20;;;;;;;6.63;100.00;98149.69;216151;1253;61227;-71
2024/01/04 01:14:09;;;;;;;7.20;5.90;;;;;;;6.63;100.00;98146.77;216245;1253;61276;-71
2024/01/04 01:19:01;;;;;;;8.00;6.50;;;;;;;6.64;100.00;98146.77;216165;1253;72563;-71
2024/01/04 01:23:52;;;;;;;9.20;6.90;;;;;;;6.62;100.00;98150.57;216239;1253;61269;-71
2024/01/04 01:28:44;;;;;;;9.10;5.30;;;;;;;6.60;100.00;98149.73;216071;1253;61346;-71
2024/01/04 01:33:42;;;;;;;8.70;6.20;;;;;;;6.60;100.00;98153.33;216161;1253;61329;-71
2024/01/04 01:38:34;;;;;;;14.60;6.20;;;;;;;6.59;100.00;98149.73;216097;1253;65777;-71
2024/01/04 01:43:25;;;;;;;21.30;13.80;;;;;;;6.59;100.00;98156.11;216074;1253;61269;-71
2024/01/04 01:48:16;;;;;;;26.30;13.90;;;;;;;6.59;100.00;98155.08;216108;1253;61211;-71
2024/01/04 01:53:08;;;;;;;21.30;11.80;;;;;;;6.58;100.00;98153.19;216102;1253;61646;-71
2024/01/04 01:58:00;;;;;;;20.40;10.10;;;;;;;6.58;100.00;98150.27;216125;1253;61265;-71
2024/01/04 02:02:53;;;;;;;15.30;9.60;;;;;;;6.60;100.00;98157.46;215962;1253;61332;-71
2024/01/04 02:07:45;;;;;;;11.40;7.80;;;;;;;6.60;100.00;98155.05;216164;1253;74576;-71
2024/01/04 02:12:38;;;;;;;10.90;6.20;;;;;;;6.61;100.00;98152.46;215990;1253;61253;-71
2024/01/04 02:17:30;;;;;;;11.50;6.00;;;;;;;6.62;100.00;98150.92;216097;1253;61264;-71
2024/01/04 02:22:21;;;;;;;10.30;6.50;;;;;;;6.62;100.00;98152.13;215968;1253;61360;-71
2024/01/04 02:27:13;;;;;;;9.60;5.60;;;;;;;6.63;100.00;98148.50;216150;1253;61320;-71
2024/01/04 02:32:05;;;;;;;9.30;5.80;;;;;;;6.63;100.00;98150.05;216206;1254;61256;-71
2024/01/04 02:36:57;;;;;;;6.60;4.40;;;;;;;6.63;100.00;98149.18;216162;1253;61340;-71
2024/01/04 02:41:49;;;;;;;7.30;5.00;;;;;;;6.63;100.00;98145.05;216193;1253;61311;-71
2024/01/04 02:46:40;;;;;;;6.90;4.30;;;;;;;6.63;100.00;98142.98;216104;1256;61259;-72
2024/01/04 02:51:31;;;;;;;5.50;4.50;;;;;;;6.63;100.00;98144.36;216206;1253;62678;-71
2024/01/04 02:56:23;;;;;;;5.80;4.40;;;;;;;6.63;100.00;98140.75;216232;1253;61238;-71
2024/01/04 03:01:22;;;;;;;8.10;5.40;;;;;;;6.61;100.00;98141.98;216002;1253;75582;-71
2024/01/04 03:06:13;;;;;;;5.00;3.90;;;;;;;6.59;100.00;98143.54;216201;1253;71901;-72
2024/01/04 03:11:05;;;;;;;7.00;4.10;;;;;;;6.57;100.00;98145.10;216137;1253;61317;-71
2024/01/04 03:15:56;;;;;;;5.40;4.40;;;;;;;6.57;100.00;98144.42;216149;1253;61329;-71
2024/01/04 03:20:47;;;;;;;8.00;4.10;;;;;;;6.57;100.00;98144.23;216182;1253;61215;-72
2024/01/04 03:25:38;;;;;;;5.10;4.30;;;;;;;6.56;100.00;98141.48;216106;1253;61397;-71
2024/01/04 03:30:30;;;;;;;6.60;4.30;;;;;;;6.56;100.00;98135.65;216194;1253;61269;-71
2024/01/04 03:35:21;;;;;;;5.30;3.80;;;;;;;6.54;100.00;98131.88;216195;1253;66884;-71
2024/01/04 03:40:13;;;;;;;5.30;3.70;;;;;;;6.51;100.00;98125.35;216191;1253;61266;-72
2024/01/04 03:45:04;;;;;;;5.50;3.60;;;;;;;6.49;100.00;98127.09;216189;1253;61264;-72
2024/01/04 03:49:56;;;;;;;5.00;3.70;;;;;;;6.45;100.00;98123.69;216129;1253;61118;-71
2024/01/04 03:54:48;;;;;;;4.90;4.00;;;;;;;6.41;100.00;98124.23;216119;1253;61323;-71
2024/01/04 03:59:39;;;;;;;4.30;3.10;;;;;;;6.35;100.00;98120.50;216073;1253;61363;-72
2024/01/04 04:04:30;;;;;;;6.50;4.70;;;;;;;6.31;100.00;98123.10;216058;1256;73213;-71
2024/01/04 04:09:22;;;;;;;5.40;3.60;;;;;;;6.29;100.00;98125.36;216155;1253;61234;-71
2024/01/04 04:14:14;;;;;;;6.20;4.10;;;;;;;6.27;100.00;98119.70;216090;1256;61848;-71
2024/01/04 04:19:05;;;;;;;6.00;3.50;;;;;;;6.24;100.00;98124.89;216079;1253;71794;-72
2024/01/04 04:23:57;;;;;;;5.10;4.20;;;;;;;6.22;100.00;98126.96;216111;1253;61251;-71
2024/01/04 04:28:49;;;;;;;4.80;3.40;;;;;;;6.21;100.00;98119.58;216163;1253;61337;-71
2024/01/04 04:33:41;;;;;;;4.20;3.60;;;;;;;6.21;100.00;98123.17;216084;1253;61324;-72
2024/01/04 04:38:34;;;;;;;6.30;3.60;;;;;;;6.22;100.00;98125.58;216128;1253;61241;-72
2024/01/04 04:43:25;;;;;;;4.30;3.80;;;;;;;6.22;100.00;98129.89;216101;1253;61357;-71
2024/01/04 04:48:16;;;;;;;4.40;3.00;;;;;;;6.22;100.00;98128.34;216256;1255;61237;-71
2024/01/04 04:53:08;;;;;;;4.50;3.30;;;;;;;6.21;100.00;98132.13;216036;1254;61266;-71
2024/01/04 04:57:59;;;;;;;5.30;3.90;;;;;;;6.20;100.00;98130.06;216023;1253;61303;-71
2024/01/04 05:02:51;;;;;;;6.20;3.60;;;;;;;6.21;100.00;98131.09;216061;1257;61274;-71
2024/01/04 05:07:42;;;;;;;6.10;3.90;;;;;;;6.20;100.00;98130.92;215933;1255;74489;-71
2024/01/04 05:12:33;;;;;;;4.40;3.90;;;;;;;6.21;100.00;98132.48;215992;1253;61273;-71
2024/01/04 05:17:25;;;;;;;7.00;4.20;;;;;;;6.21;100.00;98131.60;216127;1253;61426;-71
2024/01/04 05:22:18;;;;;;;4.20;3.60;;;;;;;6.22;100.00;98135.89;216021;1256;73061;-70
2024/01/04 05:27:09;;;;;;;5.90;4.40;;;;;;;6.22;100.00;98135.89;216029;1253;61256;-72
2024/01/04 05:32:02;;;;;;;8.10;4.50;;;;;;;6.21;100.00;98136.25;216034;1253;67614;-71
2024/01/04 05:36:54;;;;;;;6.40;5.00;;;;;;;6.20;100.00;98138.67;216118;1256;61281;-72
2024/01/04 05:41:45;;;;;;;6.10;4.50;;;;;;;6.18;100.00;98139.53;216094;1255;61260;-71
2024/01/04 05:46:36;;;;;;;7.40;4.20;;;;;;;6.16;100.00;98141.79;215987;1253;61242;-71
2024/01/04 05:51:28;;;;;;;6.30;4.00;;;;;;;6.15;100.00;98144.38;216091;1254;61319;-71
2024/01/04 05:56:34;;;;;;;5.30;4.60;;;;;;;6.16;100.00;98147.64;216045;1256;71606;-72
2024/01/04 06:01:25;;;;;;;6.20;5.20;;;;;;;6.17;100.00;98149.01;216120;1256;61264;-71
2024/01/04 06:06:19;;;;;;;7.60;5.50;;;;;;;6.17;100.00;98150.03;216077;1254;61332;-71
2024/01/04 06:11:10;;;;;;;6.10;5.30;;;;;;;6.17;100.00;98154.34;215930;1256;61270;-71
2024/01/04 06:16:07;;;;;;;7.70;6.00;;;;;;;6.18;100.00;98153.81;216093;1254;61667;-71
2024/01/04 06:20:58;;;;;;;8.50;6.60;;;;;;;6.18;100.00;98157.60;216069;1254;61233;-71
2024/01/04 06:25:49;;;;;;;11.40;8.60;;;;;;;6.18;100.00;98158.45;216050;1253;61271;-71
2024/01/04 06:30:41;;;;;;;9.00;7.40;;;;;;;6.17;100.00;98159.66;216075;1254;61237;-72
2024/01/04 06:38:47;;;;;;;11.80;7.90;;;;;;;6.18;100.00;98156.05;209822;1291;599368;-70
2024/01/04 06:43:40;;;;;;;10.70;7.30;;;;;;;6.13;100.00;98152.30;215495;1261;59239;-69
2024/01/04 06:48:33;;;;;;;8.30;7.30;;;;;;;6.08;100.00;98151.64;215271;1257;59306;-70
2024/01/04 06:53:26;;;;;;;10.90;7.50;;;;;;;6.03;100.00;98154.42;215587;1256;182640;-71
2024/01/04 06:58:20;;;;;;;9.60;8.50;;;;;;;5.98;100.00;98154.96;215710;1256;70633;-70
2024/01/04 07:03:12;;;;;;;9.00;7.40;;;;;;;5.96;100.00;98157.89;215750;1257;72320;-70
2024/01/04 07:08:05;;;;;;;9.70;7.40;;;;;;;5.97;100.00;98158.73;215727;1258;59257;-69
2024/01/04 07:12:58;;;;;;;9.60;7.00;;;;;;;6.02;100.00;98155.13;215797;1256;59283;-70
2024/01/04 07:17:51;;;;;;;9.20;6.40;;;;;;;6.05;100.00;98155.61;215726;1255;59259;-70
2024/01/04 07:22:44;;;;;;;8.00;6.10;;;;;;;6.09;100.00;98156.09;215748;1255;70161;-70
2024/01/04 07:27:37;;;;;;;8.50;6.50;;;;;;;6.10;100.00;98150.25;215657;1256;59737;-70
2024/01/04 07:32:30;;;;;;;8.10;6.10;;;;;;;6.13;100.00;98154.53;215700;1256;59732;-70
2024/01/04 07:37:23;;;;;;;9.80;7.20;;;;;;;6.16;100.00;98152.96;215612;1256;61453;-70
2024/01/04 07:42:15;;;;;;;7.90;6.40;;;;;;;6.18;100.00;98149.86;215742;1255;59676;-72
2024/01/04 07:47:08;;;;;;;8.40;7.40;;;;;;;6.21;100.00;98143.14;215767;1256;59562;-70
2024/01/04 07:52:01;;;;;;;11.80;6.60;;;;;;;6.23;100.00;98147.77;215600;1256;59644;-70
2024/01/04 07:56:54;;;;;;;11.00;7.50;;;;;;;6.25;100.00;98154.10;215728;1256;59731;-70
2024/01/04 08:01:47;;;;;;;10.10;7.20;;;;;;;6.28;100.00;98150.30;215692;1256;59745;-70
2024/01/04 08:06:40;;;;;;;10.20;7.60;;;;;;;6.32;100.00;98155.10;215675;1256;59668;-72
2024/01/04 08:11:33;;;;;;;10.30;8.30;;;;;;;6.35;100.00;98155.42;215665;1256;59846;-73
2024/01/04 08:16:26;;;;;;;9.30;7.40;;;;;;;6.43;100.00;98154.52;215720;1256;59747;-72
2024/01/04 08:21:18;;;;;;;10.70;8.10;;;;;;;6.51;100.00;98159.60;215760;1256;59672;-72
2024/01/04 08:26:11;;;;;;;9.10;7.80;;;;;;;6.60;100.00;98160.05;215733;1256;59751;-72
2024/01/04 08:31:04;;;;;;;7.90;6.80;;;;;;;6.68;100.00;98160.84;215694;1256;59670;-74
2024/01/04 08:35:57;;;;;;;10.90;8.30;;;;;;;6.74;100.00;98162.86;215866;1256;59723;-71
2024/01/04 08:40:50;;;;;;;9.40;8.30;;;;;;;6.77;100.00;98163.69;215700;1256;59648;-72
2024/01/04 08:45:43;;;;;;;11.00;8.00;;;;;;;6.77;100.00;98164.39;215759;1254;59654;-72
2024/01/04 08:50:36;;;;;;;10.20;7.60;;;;;;;6.76;100.00;98161.30;215767;1256;61178;-71
2024/01/04 08:55:29;;;;;;;9.70;8.20;;;;;;;6.78;100.00;98159.21;215692;1256;60086;-71
2024/01/04 09:00:22;;;;;;;8.10;7.30;;;;;;;6.80;100.00;98165.73;215744;1256;60072;-71
2024/01/04 09:05:15;;;;;;;11.30;7.90;;;;;;;6.80;100.00;98173.83;215653;1259;59734;-71
2024/01/04 09:10:08;;;;;;;10.90;8.20;;;;;;;6.80;100.00;98172.28;215772;1256;59714;-72
2024/01/04 09:15:01;;;;;;;10.00;7.90;;;;;;;6.79;100.00;98174.18;215753;1256;59613;-72
2024/01/04 09:19:55;;;;;;;9.50;7.50;;;;;;;6.77;100.00;98177.48;215732;1256;59706;-71
2024/01/04 09:24:48;;;;;;;9.10;7.70;;;;;;;6.76;100.00;98178.00;215710;1259;72581;-73
2024/01/04 09:29:41;;;;;;;9.60;8.00;;;;;;;6.75;100.00;98180.59;215616;1256;71124;-72
2024/01/04 09:34:34;;;;;;;9.50;7.20;;;;;;;6.76;100.00;98178.69;215773;1256;59618;-72
2024/01/04 09:39:27;;;;;;;11.10;8.20;;;;;;;6.78;100.00;98178.32;215706;1256;59622;-73
2024/01/04 09:44:20;;;;;;;12.00;8.40;;;;;;;6.85;100.00;98175.52;215799;1256;59646;-74
2024/01/04 09:49:13;;;;;;;9.90;8.50;;;;;;;6.97;100.00;98175.41;215458;1259;72377;-74
2024/01/04 09:54:08;;;;;;;8.50;7.60;;;;;;;7.12;100.00;98175.77;215773;1256;71650;-74
2024/01/04 09:59:01;;;;;;;9.00;7.30;;;;;;;7.25;100.00;98175.13;215728;1259;59804;-73
2024/01/04 10:03:55;;;;;;;7.40;6.60;;;;;;;7.34;99.96;98173.83;215755;1256;60186;-74
2024/01/04 10:08:56;;;;;;;9.80;7.30;;;;;;;7.40;99.84;98174.98;215601;1256;59676;-72
2024/01/04 10:13:50;;;;;;;8.10;7.30;;;;;;;7.55;99.85;98170.52;215739;1256;72910;-71
2024/01/04 10:18:43;;;;;;;5.80;5.10;;;;;;;7.70;99.53;98168.41;215620;1257;71086;-72
2024/01/04 10:23:37;;;;;;;5.80;5.30;;;;;;;7.72;99.29;98165.65;215720;1256;60082;-71
2024/01/04 10:28:30;;;;;;;6.40;5.70;;;;;;;7.75;99.33;98171.14;215795;1256;65197;-71
2024/01/04 10:33:22;;;;;;;9.30;5.10;;;;;;;7.74;99.40;98170.45;215504;1256;59634;-72
2024/01/04 10:38:15;;;;;;;8.10;5.20;;;;;;;7.64;99.51;98168.84;215656;1256;60110;-71
2024/01/04 10:43:08;;;;;;;5.40;4.90;;;;;;;7.57;99.70;98173.57;215658;1256;59763;-71
2024/01/04 10:48:01;;;;;;;11.50;7.30;;;;;;;7.50;99.57;98176.08;215622;1257;60077;-71
2024/01/04 10:52:55;;;;;;;5.30;4.90;;;;;;;7.44;99.47;98180.44;215537;1256;66141;-72
2024/01/04 10:57:49;;;;;;;6.30;5.50;;;;;;;7.40;99.51;98176.02;215613;1260;59663;-72
2024/01/04 11:02:44;;;;;;;13.20;5.50;;;;;;;7.40;99.47;98176.70;215572;1256;73141;-71
2024/01/04 11:07:39;;;;;;;6.00;5.10;;;;;;;7.35;99.43;98173.30;215618;1257;71068;-71
2024/01/04 11:12:33;;;;;;;5.00;4.50;;;;;;;7.36;99.48;98168.48;215411;1261;59627;-72
2024/01/04 11:17:42;;;;;;;5.40;4.80;;;;;;;7.47;99.36;98164.73;215747;1259;65823;-72
2024/01/04 11:22:38;;;;;;;5.80;5.20;;;;;;;7.58;99.41;98157.70;215686;1257;59651;-71
2024/01/04 11:27:32;;;;;;;6.70;5.40;;;;;;;7.64;99.18;98154.88;215663;1256;72973;-72
2024/01/04 11:32:28;;;;;;;6.30;5.70;;;;;;;7.66;99.10;98152.61;215532;1256;71203;-71
2024/01/04 11:37:23;;;;;;;6.80;5.70;;;;;;;7.61;99.13;98157.14;215603;1256;60367;-73
2024/01/04 11:42:16;;;;;;;9.10;7.40;;;;;;;7.55;99.45;98155.32;215714;1258;67182;-72
2024/01/04 11:47:14;;;;;;;7.10;6.30;;;;;;;7.52;99.33;98160.88;215658;1256;60101;-73
2024/01/04 11:52:09;;;;;;;9.90;7.30;;;;;;;7.56;99.52;98157.20;215737;1256;72721;-72
2024/01/04 11:57:18;;;;;;;11.00;7.20;;;;;;;7.66;99.28;98160.89;215671;1257;72476;-73
2024/01/04 12:02:22;;;;;;;7.10;5.90;;;;;;;7.73;99.02;98157.87;215590;1259;59623;-73
2024/01/04 12:07:15;;;;;;;8.80;6.60;;;;;;;7.78;98.80;98162.11;215719;1256;66093;-71
2024/01/04 12:12:09;;;;;;;9.90;8.20;;;;;;;7.81;98.85;98162.59;215661;1259;59619;-72
2024/01/04 12:17:03;;;;;;;8.10;7.30;;;;;;;7.79;98.86;98168.14;215612;1256;72770;-72
2024/01/04 12:21:56;;;;;;;9.20;7.50;;;;;;;7.81;98.91;98164.33;215767;1259;72184;-71
2024/01/04 12:26:49;;;;;;;8.40;7.60;;;;;;;7.79;99.00;98160.04;215696;1258;59620;-72
2024/01/04 12:31:45;;;;;;;10.30;9.30;;;;;;;7.81;98.86;98161.90;215654;1259;65743;-72
2024/01/04 12:36:39;;;;;;;8.50;7.60;;;;;;;7.76;99.04;98166.44;215372;1259;59643;-72
2024/01/04 12:41:31;;;;;;;10.10;8.10;;;;;;;7.76;99.11;98173.17;215537;1257;72960;-72
2024/01/04 12:46:27;;;;;;;6.00;5.40;;;;;;;7.73;99.06;98172.00;215402;1260;59617;-72
2024/01/04 12:51:29;;;;;;;5.80;4.90;;;;;;;7.69;98.98;98171.54;215563;1257;60328;-72
2024/01/04 12:56:22;;;;;;;5.50;4.50;;;;;;;7.67;98.47;98174.14;215580;1258;67009;-71
2024/01/04 13:01:15;;;;;;;6.80;4.80;;;;;;;7.70;98.52;98177.55;215761;1260;59653;-71
2024/01/04 13:06:09;;;;;;;5.90;4.60;;;;;;;7.73;98.40;98181.66;215731;1259;70829;-70
2024/01/04 13:11:03;;;;;;;6.20;5.60;;;;;;;7.83;98.08;98185.85;215726;1258;72327;-70
2024/01/04 13:15:56;;;;;;;5.50;4.90;;;;;;;7.84;98.12;98183.08;215743;1256;59645;-71
2024/01/04 13:20:50;;;;;;;6.50;5.30;;;;;;;7.86;98.17;98190.13;215439;1260;66781;-73
2024/01/04 13:25:43;;;;;;;6.40;5.80;;;;;;;7.81;98.09;98190.02;215618;1260;59718;-73
2024/01/04 13:30:35;;;;;;;5.20;4.80;;;;;;;7.69;98.08;98191.38;215706;1260;59644;-71
2024/01/04 13:35:28;;;;;;;6.40;5.70;;;;;;;7.59;98.32;98199.25;215672;1257;59743;-71
2024/01/04 13:40:21;;;;;;;7.10;6.50;;;;;;;7.52;98.45;98210.52;215712;1254;59740;-71
2024/01/04 13:45:16;;;;;;;8.70;7.80;;;;;;;7.45;98.63;98211.97;215585;1256;59711;-73
2024/01/04 13:50:10;;;;;;;9.20;7.80;;;;;;;7.38;98.88;98210.33;215471;1257;59654;-73
2024/01/04 13:55:04;;;;;;;8.30;7.50;;;;;;;7.32;98.73;98213.66;215628;1257;71357;-72
2024/01/04 13:59:57;;;;;;;9.20;6.30;;;;;;;7.26;98.73;98218.04;215588;1256;72486;-72
2024/01/04 14:04:50;;;;;;;7.10;6.30;;;;;;;7.22;98.98;98225.48;215568;1258;59612;-73
2024/01/04 14:09:43;;;;;;;5.40;4.90;;;;;;;7.19;98.85;98231.70;216289;1255;59641;-73
2024/01/04 14:14:36;;;;;;;5.10;4.60;;;;;;;7.16;98.73;98236.39;216247;1254;60057;-73
2024/01/04 14:19:29;;;;;;;5.40;3.80;;;;;;;7.10;98.87;98234.55;216407;1255;60772;-72
2024/01/04 14:24:22;;;;;;;5.10;3.70;;;;;;;7.04;98.66;98237.52;216224;1253;59837;-72
2024/01/04 14:29:15;;;;;;;4.90;3.70;;;;;;;6.98;98.52;98240.85;216320;1254;59736;-72
2024/01/04 14:34:08;;;;;;;5.10;4.00;;;;;;;6.93;98.78;98243.81;216307;1253;59647;-72
2024/01/04 14:39:02;;;;;;;5.40;4.60;;;;;;;6.89;98.88;98243.51;216259;1251;59899;-71
2024/01/04 14:43:57;;;;;;;6.20;4.50;;;;;;;6.83;98.80;98244.40;216069;1254;72443;-71
2024/01/04 14:48:51;;;;;;;5.20;4.60;;;;;;;6.78;98.78;98248.23;216294;1254;70249;-71
2024/01/04 14:53:44;;;;;;;6.40;4.70;;;;;;;6.73;98.98;98255.84;216360;1254;60528;-72
2024/01/04 14:58:37;;;;;;;7.80;4.30;;;;;;;6.71;99.13;98258.59;216256;1254;60463;-72
2024/01/04 15:03:30;;;;;;;5.30;4.40;;;;;;;6.69;99.02;98259.14;216183;1253;60527;-72
2024/01/04 15:08:25;;;;;;;5.70;5.20;;;;;;;6.67;99.01;98258.11;216171;1252;73827;-72
2024/01/04 15:13:18;;;;;;;6.20;5.30;;;;;;;6.65;99.08;98255.20;216197;1254;73786;-73
2024/01/04 15:18:11;;;;;;;7.10;5.60;;;;;;;6.61;99.06;98254.71;216103;1255;60451;-73
2024/01/04 15:23:08;;;;;;;;;;;;;;;6.58;98.89;98252.84;216324;1254;65952;-73
2024/01/04 15:28:02;;;;;;;8.10;7.30;;;;;;;6.55;99.00;98250.63;216285;1254;60594;-73
2024/01/04 15:32:55;;;;;;;7.80;6.10;;;;;;;6.52;99.07;98256.48;216020;1255;73912;-72
2024/01/04 15:37:48;;;;;;;10.30;7.00;;;;;;;6.51;99.02;98259.08;218736;1253;58287;-73
2024/01/04 15:42:41;;;;;;;7.50;6.70;;;;;;;6.53;99.07;98259.76;218660;1254;58348;-72
2024/01/04 15:47:34;;;;;;;8.10;7.20;;;;;;;6.54;98.82;98265.95;218646;1253;58444;-72
2024/01/04 15:52:27;;;;;;;8.50;6.70;;;;;;;6.55;98.71;98266.98;218696;1252;58436;-72
2024/01/04 15:57:20;;;;;;;6.50;5.90;;;;;;;6.56;98.47;98263.69;218786;1252;58746;-72
2024/01/04 16:02:13;;;;;;;7.20;6.00;;;;;;;6.56;98.42;98254.58;218612;1251;58367;-72
2024/01/04 16:07:06;;;;;;;9.30;7.00;;;;;;;6.57;98.57;98249.92;218774;1251;60008;-73
2024/01/04 16:11:59;;;;;;;8.50;7.30;;;;;;;6.56;98.44;98253.20;218677;1251;65950;-73
2024/01/04 16:16:52;;;;;;;8.30;7.50;;;;;;;6.56;98.16;98256.47;218679;1252;58430;-73
2024/01/04 16:21:45;;;;;;;8.50;7.20;;;;;;;6.55;98.19;98261.30;218776;1251;58313;-74
2024/01/04 16:26:39;;;;;;;6.90;6.20;;;;;;;6.54;98.01;98272.33;218761;1251;58533;-73
2024/01/04 16:31:32;;;;;;;7.70;5.90;;;;;;;6.48;97.62;98278.89;218684;1254;60326;-71
2024/01/04 16:36:26;;;;;;;5.10;4.30;;;;;;;6.45;97.42;98288.02;218753;1251;58423;-72
2024/01/04 16:41:20;;;;;;;4.20;3.40;;;;;;;6.34;96.49;98304.94;218759;1252;58549;-72
2024/01/04 16:46:12;;;;;;;3.10;2.50;;;;;;;6.23;96.02;98318.06;218840;1251;58397;-72
2024/01/04 16:51:05;;;;;;;2.50;1.90;;;;;;;6.12;95.52;98326.36;218728;1251;58317;-75
2024/01/04 16:55:58;;;;;;;2.60;1.30;;;;;;;5.96;94.89;98328.64;218838;1251;58482;-73
2024/01/04 17:00:51;;;;;;;3.80;1.60;;;;;;;5.82;94.50;98341.03;218757;1251;58721;-72
2024/01/04 17:05:45;;;;;;;2.90;1.50;;;;;;;5.71;94.51;98349.13;218739;1252;58704;-72
2024/01/04 17:10:40;;;;;;;2.40;1.50;;;;;;;5.64;94.78;98356.02;218750;1251;71423;-71
2024/01/04 17:15:34;;;;;;;1.70;1.40;;;;;;;5.60;94.76;98361.00;218817;1251;71701;-71
2024/01/04 17:20:29;;;;;;;1.80;1.60;;;;;;;5.56;94.53;98364.60;218630;1251;60239;-72
2024/01/04 17:25:22;;;;;;;1.90;1.70;;;;;;;5.52;94.79;98369.92;218700;1252;67342;-72
2024/01/04 17:30:18;;;;;;;9.70;4.20;;;;;;;5.53;94.86;98375.60;218583;1252;58732;-72
2024/01/04 17:35:11;;;;;;;3.50;2.90;;;;;;;5.53;94.96;98382.30;218765;1252;74056;-71
2024/01/04 17:40:04;;;;;;;3.10;2.80;;;;;;;5.51;94.98;98387.11;218662;1252;61383;-71
2024/01/04 17:44:58;;;;;;;3.10;2.80;;;;;;;5.46;94.82;98398.46;218638;1252;58847;-71
2024/01/04 17:49:50;;;;;;;4.60;3.80;;;;;;;5.43;94.81;98404.98;218714;1251;66842;-71
2024/01/04 17:54:43;;;;;;;3.30;2.70;;;;;;;5.43;94.97;98413.06;218626;1252;58310;-71
2024/01/04 17:59:36;;;;;;;4.30;2.70;;;;;;;5.41;94.67;98418.73;218643;1252;58818;-71
2024/01/04 18:04:29;;;;;;;4.00;2.50;;;;;;;5.34;94.22;98419.07;218734;1251;58475;-71
2024/01/04 18:09:22;;;;;;;3.30;2.90;;;;;;;5.27;93.91;98423.35;218623;1252;58468;-71
2024/01/04 18:14:14;;;;;;;5.40;3.20;;;;;;;5.19;93.90;98425.73;218688;1252;58375;-71
2024/01/04 18:19:07;;;;;;;6.00;4.60;;;;;;;5.16;94.01;98436.89;218705;1251;59240;-71
2024/01/04 18:24:02;;;;;;;4.30;3.20;;;;;;;5.10;93.73;98442.73;218724;1251;73671;-71
2024/01/04 18:28:55;;;;;;;4.40;2.80;;;;;;;5.02;93.04;98447.51;218735;1251;73581;-71
2024/01/04 18:33:49;;;;;;;3.70;2.40;;;;;;;4.94;92.87;98455.04;218561;1252;60562;-71
2024/01/04 18:38:43;;;;;;;3.70;3.00;;;;;;;4.87;92.69;98462.73;218645;1251;65782;-72
2024/01/04 18:43:46;;;;;;;3.20;2.40;;;;;;;4.83;92.53;98469.94;218668;1252;59070;-71
2024/01/04 18:48:39;;;;;;;2.90;2.60;;;;;;;4.77;92.31;98481.59;218578;1252;73090;-71
2024/01/04 18:53:32;;;;;;;3.00;2.60;;;;;;;4.71;92.19;98483.77;218472;1251;248707;-72
2024/01/04 18:58:25;;;;;;;4.30;2.70;;;;;;;4.65;92.24;98490.09;218675;1252;63214;-72
2024/01/04 19:03:20;;;;;;;4.30;3.30;;;;;;;4.63;92.18;98497.81;218601;1252;58393;-72
2024/01/04 19:08:13;;;;;;;5.40;3.90;;;;;;;4.60;92.10;98510.48;218756;1251;58418;-72
2024/01/04 19:13:06;;;;;;;3.70;3.20;;;;;;;4.56;92.01;98516.30;218667;1252;58330;-72
2024/01/04 19:17:59;;;;;;;3.80;3.40;;;;;;;4.53;91.97;98519.54;218699;1252;71833;-72
2024/01/04 19:22:52;;;;;;;5.60;3.90;;;;;;;4.49;91.60;98524.32;218671;1252;63469;-71
2024/01/04 19:28:10;;;;;;;4.10;3.60;;;;;;;4.45;91.63;98529.62;218665;1252;58350;-72
2024/01/04 19:33:04;;;;;;;;;;;;;;;4.39;90.88;98531.64;218665;1252;58468;-70
2024/01/04 19:37:57;;;;;;;4.00;3.60;;;;;;;4.31;91.15;98545.30;218780;1251;73979;-70
2024/01/04 19:42:50;;;;;;;4.00;3.60;;;;;;;4.25;90.93;98553.48;218715;1252;59398;-71
2024/01/04 19:47:43;;;;;;;4.20;3.80;;;;;;;4.24;91.17;98561.88;218644;1252;58207;-71
2024/01/04 19:52:39;;;;;;;5.20;4.00;;;;;;;4.23;91.13;98566.84;218747;1252;67244;-71
2024/01/04 19:57:32;;;;;;;4.60;4.20;;;;;;;4.21;91.32;98577.98;218592;1250;58333;-72
2024/01/04 20:02:27;;;;;;;5.10;4.60;;;;;;;4.17;91.52;98585.49;218750;1252;58935;-71
2024/01/04 20:07:21;;;;;;;4.80;4.30;;;;;;;4.14;91.53;98593.88;218655;1252;72566;-71
2024/01/04 20:12:14;;;;;;;5.30;4.80;;;;;;;4.12;91.54;98606.02;218644;1252;60746;-71
2024/01/04 20:17:07;;;;;;;6.30;5.30;;;;;;;4.05;91.58;98617.61;218722;1252;66295;-72
2024/01/04 20:22:01;;;;;;;6.20;5.60;;;;;;;4.00;91.80;98623.92;218621;1252;58247;-71
2024/01/04 20:26:55;;;;;;;5.50;5.00;;;;;;;3.95;91.99;98631.75;218671;1251;72998;-72
2024/01/04 20:31:48;;;;;;;5.50;5.00;;;;;;;3.92;92.06;98637.73;218698;1251;72702;-72
2024/01/04 20:36:41;;;;;;;6.00;5.50;;;;;;;3.91;92.32;98640.45;218628;1251;58422;-71
2024/01/04 20:41:34;;;;;;;5.50;5.10;;;;;;;3.87;92.01;98645.73;218666;1251;65970;-72
2024/01/04 20:46:27;;;;;;;6.90;6.30;;;;;;;3.80;91.97;98656.80;218692;1252;58656;-72
2024/01/04 20:51:21;;;;;;;6.30;5.70;;;;;;;3.80;92.18;98666.39;218668;1251;58593;-72
2024/01/04 20:56:13;;;;;;;6.90;6.10;;;;;;;3.77;92.11;98675.79;218657;1251;72641;-72
2024/01/04 21:01:07;;;;;;;6.50;5.70;;;;;;;3.73;92.04;98676.25;218655;1252;58602;-71
2024/01/04 21:06:00;;;;;;;6.50;5.60;;;;;;;3.72;92.13;98689.77;218478;1251;66205;-71
2024/01/04 21:10:53;;;;;;;5.50;4.80;;;;;;;3.69;92.11;98697.10;218657;1251;58767;-71
2024/01/04 21:15:46;;;;;;;6.00;5.10;;;;;;;3.65;92.00;98712.13;218550;1252;58651;-71
2024/01/04 21:20:39;;;;;;;6.30;5.70;;;;;;;3.61;92.09;98740.17;218737;1251;58249;-71
2024/01/04 21:25:32;;;;;;;6.70;6.00;;;;;;;3.46;90.55;98789.82;218721;1252;58287;-71
2024/01/04 21:30:33;;;;;;;8.40;6.40;;;;;;;3.06;88.86;98812.14;218635;1251;62858;-71
2024/01/04 21:35:29;;;;;;;7.50;6.50;;;;;;;2.70;88.72;98837.19;218588;1251;58604;-71
2024/01/04 21:40:23;;;;;;;10.80;8.00;;;;;;;2.34;87.67;98853.26;218692;1251;73599;-71
2024/01/04 21:45:17;;;;;;;8.70;7.10;;;;;;;2.03;88.11;98870.92;218600;1252;58524;-71
2024/01/04 21:50:15;;;;;;;11.00;7.90;;;;;;;1.77;87.43;98883.85;218702;1252;59392;-72
2024/01/04 21:55:10;;;;;;;9.80;7.70;;;;;;;1.63;87.85;98899.91;218655;1252;66373;-72
2024/01/04 22:00:05;;;;;;;13.80;9.70;;;;;;;1.55;87.69;98910.99;218547;1252;58687;-72
2024/01/04 22:04:58;;;;;;;10.90;8.70;;;;;;;1.39;87.57;98941.01;218708;1251;72203;-72
2024/01/04 22:09:51;;;;;;;12.30;9.30;;;;;;;1.23;86.16;98961.23;218737;1252;72814;-72
2024/01/04 22:14:44;;;;;;;10.30;8.10;;;;;;;1.00;86.15;98990.14;218713;1252;59364;-72
2024/01/04 22:19:42;;;;;;;12.90;9.40;;;;;;;0.86;85.51;99016.70;218715;1251;65636;-72
2024/01/04 22:24:43;;;;;;;11.00;9.40;;;;;;;0.62;85.19;99044.67;218770;1252;58843;-71
2024/01/04 22:29:37;;;;;;;14.20;10.20;;;;;;;0.51;85.28;99061.21;218756;1252;58207;-72
2024/01/04 22:34:30;;;;;;;17.60;11.60;;;;;;;0.36;84.54;99087.19;218572;1251;72650;-71
2024/01/04 22:39:26;;;;;;;17.10;12.00;;;;;;;0.17;83.95;99089.63;218673;1252;59846;-71
2024/01/04 22:44:25;;;;;;;16.00;10.30;;;;;;;-0.01;83.70;99104.06;218767;1252;65942;-72
2024/01/04 22:55:45;;;;;;;11.20;6.90;;;;;;;-0.32;81.85;99163.09;217720;1257;74608;-72
2024/01/04 23:00:41;;;;;;;9.60;4.90;;;;;;;-0.48;82.07;99187.05;217749;1259;73750;-72